KCOF/COF METAR and TAF weather

Enter ICAO airport designator
Station Type Date Time Source
KCOF METAR 2019/04/25 20:56 UTC NOAA

KCOF 252056Z AUTO 12012KT 10SM CLR 27/20 A2996 RMK AO2 SLP150 T02680199 57013 $


Station Type Date Time Source
KCOF Decoded METAR 2019/04/25 20:56 UTC NOAA

Cocoa / Patrick Air Force Base, FL, United States (KCOF) 28-14N 080-36W 3M
Apr 25, 2019 - 04:56 PM EDT / 2019.04.25 2056 UTC
Wind: from the ESE (120 degrees) at 14 MPH (12 KT):0
Visibility: 10 mile(s):0
Sky conditions: clear
Temperature: 80.2 F (26.8 C)
Dew Point: 67.8 F (19.9 C)
Relative Humidity: 65%
Pressure (altimeter): 29.96 in. Hg (1014 hPa)
Pressure tendency: 0.04 inches (1.3 hPa) lower than three hours ago
ob: KCOF 252056Z AUTO 12012KT 10SM CLR 27/20 A2996 RMK AO2 SLP150 T02680199 57013
cycle: 21

Station Type Date Time Source
KCOF TAF 2019/04/25 18:25 UTC NOAA

TAF KCOF 251800Z 2518/2624 14012KT 9999 SCT040 SCT250 QNH2996INS
BECMG 2523/2524 19009KT 9999 FEW040 SCT120 BKN250 QNH2994INS
BECMG 2614/2615 22015G20KT 9999 SCT030 SCT100 BKN250 QNH2992INS
BECMG 2620/2621 23020G25KT 9000 -SHRA BKN020 BKN080 OVC250 QNH2987INS
BECMG 2623/2624 26012KT 9999 VCSH SCT020 BKN100 BKN250 QNH2985INS TX28/2519Z TN21/2609Z

Example: see airport list